Time;durP1;ratioP1;P1;durP2;ratioP2;P2;SDS_P1;SDS_P2;PMS_P1;PMS_P2;Temp;Humidity;BMP_temperature;BMP_pressure;BME280_temperature;BME280_humidity;BME280_pressure;Samples;Min_cycle;Max_cycle;Signal;HPM_P1;HPM_P2
2021/01/17 00:01:58;;;;;;;26.33;17.40;;;;;;;-4.39;86.20;95640.63;4996024;28;21386;-72
2021/01/17 00:04:25;;;;;;;29.10;17.53;;;;;;;-4.43;86.45;95642.56;4998128;28;20476;-71
2021/01/17 00:06:52;;;;;;;26.40;19.03;;;;;;;-4.39;85.70;95630.31;5004577;28;20534;-71
2021/01/17 00:09:19;;;;;;;25.77;16.60;;;;;;;-4.50;85.97;95633.56;5004253;28;20480;-71
2021/01/17 00:11:49;;;;;;;30.57;18.57;;;;;;;-4.43;86.63;95629.69;5000684;28;20502;-71
2021/01/17 00:14:16;;;;;;;26.67;19.13;;;;;;;-4.41;85.93;95627.84;5004913;28;20463;-71
2021/01/17 00:16:43;;;;;;;23.50;16.00;;;;;;;-4.47;86.20;95623.09;4981685;28;20491;-71
2021/01/17 00:19:11;;;;;;;28.40;19.83;;;;;;;-4.49;85.98;95619.75;4993818;28;20995;-71
2021/01/17 00:21:43;;;;;;;28.53;20.40;;;;;;;-4.48;85.82;95613.72;4973059;28;20499;-72
2021/01/17 00:24:11;;;;;;;25.73;17.77;;;;;;;-4.41;86.36;95606.41;4999177;28;20460;-71
2021/01/17 00:26:38;;;;;;;28.93;18.90;;;;;;;-4.38;85.93;95604.50;5002889;28;20460;-71
2021/01/17 00:29:06;;;;;;;28.23;17.30;;;;;;;-4.43;85.50;95603.94;4976386;28;20472;-71
2021/01/17 00:31:36;;;;;;;23.07;19.23;;;;;;;-4.44;85.57;95607.44;4991141;28;20495;-71
2021/01/17 00:34:06;;;;;;;26.23;15.87;;;;;;;-4.38;86.42;95607.06;5002764;28;20780;-71
2021/01/17 00:36:40;;;;;;;26.87;17.67;;;;;;;-4.37;85.96;95603.56;4985462;28;20561;-71
2021/01/17 00:39:07;;;;;;;25.13;17.57;;;;;;;-4.37;85.75;95598.41;4993888;28;20492;-71
2021/01/17 00:41:35;;;;;;;25.40;18.10;;;;;;;-4.34;85.53;95600.78;4999023;28;20460;-71
2021/01/17 00:44:02;;;;;;;23.30;16.43;;;;;;;-4.30;85.02;95589.41;4974609;28;20921;-71
2021/01/17 00:46:37;;;;;;;29.03;18.23;;;;;;;-4.34;85.65;95590.50;5003019;28;20469;-70
2021/01/17 00:49:04;;;;;;;26.70;19.30;;;;;;;-4.34;84.90;95567.31;5001729;28;20517;-70
2021/01/17 00:51:42;;;;;;;28.20;17.03;;;;;;;-4.27;85.71;95559.22;4981234;28;20549;-71
2021/01/17 00:54:09;;;;;;;27.43;18.07;;;;;;;-4.26;85.28;95559.09;5004532;28;20475;-70
2021/01/17 00:56:37;;;;;;;24.50;17.03;;;;;;;-4.25;85.21;95559.94;4990060;28;20475;-71
2021/01/17 00:59:05;;;;;;;22.90;16.83;;;;;;;-4.15;85.51;95554.09;5002733;28;20467;-71
2021/01/17 01:01:41;;;;;;;28.00;17.40;;;;;;;-3.98;84.18;95547.88;4980997;28;20810;-71
2021/01/17 01:04:09;;;;;;;31.53;19.30;;;;;;;-4.01;84.34;95540.34;4985755;28;21072;-72
2021/01/17 01:06:37;;;;;;;25.93;17.77;;;;;;;-4.11;84.39;95547.84;4999706;28;20495;-71
2021/01/17 01:09:07;;;;;;;27.20;17.77;;;;;;;-4.15;83.97;95542.97;4996234;28;20542;-71
2021/01/17 01:11:33;;;;;;;25.67;16.97;;;;;;;-4.15;84.58;95530.09;5003013;28;20468;-71
2021/01/17 01:14:00;;;;;;;24.50;18.33;;;;;;;-4.07;84.96;95533.00;5003290;28;20482;-71
2021/01/17 01:16:27;;;;;;;20.03;15.07;;;;;;;-3.92;84.38;95532.03;5000227;28;20537;-71
2021/01/17 01:18:55;;;;;;;21.30;15.30;;;;;;;-4.03;84.39;95524.97;4979273;28;20818;-71
2021/01/17 01:21:26;;;;;;;21.90;17.37;;;;;;;-4.08;84.59;95521.03;4995793;28;20495;-71
2021/01/17 01:23:53;;;;;;;38.43;17.00;;;;;;;-4.02;85.38;95515.50;5004506;28;20502;-71
2021/01/17 01:26:21;;;;;;;29.07;16.97;;;;;;;-3.85;84.83;95519.53;4987325;28;20984;-71
2021/01/17 01:28:48;;;;;;;21.40;15.87;;;;;;;-3.88;84.72;95512.00;5000128;28;20474;-70
2021/01/17 01:31:19;;;;;;;25.63;16.33;;;;;;;-3.87;84.62;95517.06;4985372;28;20463;-71
2021/01/17 01:33:46;;;;;;;25.57;17.53;;;;;;;-3.91;85.25;95502.75;5000583;28;20458;-71
2021/01/17 01:36:25;;;;;;;19.77;13.43;;;;;;;-3.80;85.70;95504.63;5001674;28;20502;-71
2021/01/17 01:38:52;;;;;;;23.83;15.70;;;;;;;-3.78;85.47;95498.41;4994470;28;20494;-71
2021/01/17 01:41:20;;;;;;;24.33;16.50;;;;;;;-3.82;85.69;95491.81;4998514;28;20460;-71
2021/01/17 01:43:47;;;;;;;22.73;14.63;;;;;;;-3.79;86.02;95491.63;4996745;28;21286;-71
2021/01/17 01:46:16;;;;;;;19.73;15.00;;;;;;;-3.80;86.78;95489.97;4976683;28;20484;-71
2021/01/17 01:48:44;;;;;;;21.27;15.37;;;;;;;-3.73;86.56;95478.34;4987248;28;20498;-71
2021/01/17 01:51:12;;;;;;;20.90;15.90;;;;;;;-3.69;86.57;95480.69;4983796;28;20476;-72
2021/01/17 01:53:41;;;;;;;23.07;15.73;;;;;;;-3.72;86.64;95467.09;4988932;28;20474;-72
2021/01/17 01:56:09;;;;;;;18.93;14.33;;;;;;;-3.66;86.60;95471.00;5005275;28;20878;-71
2021/01/17 01:58:37;;;;;;;17.00;12.30;;;;;;;-3.65;86.22;95471.84;4986841;28;21237;-72
2021/01/17 02:01:05;;;;;;;22.93;16.60;;;;;;;-3.61;86.81;95468.13;4990225;28;20474;-71
2021/01/17 02:03:31;;;;;;;20.80;15.37;;;;;;;-3.57;86.12;95469.56;5002719;28;20555;-72
2021/01/17 02:05:59;;;;;;;19.00;14.47;;;;;;;-3.57;86.53;95459.22;4989524;28;20526;-71
2021/01/17 02:08:47;;;;;;;19.00;15.57;;;;;;;-3.56;86.01;95456.56;5007657;28;20529;-72
2021/01/17 02:11:26;;;;;;;18.47;14.07;;;;;;;-3.67;86.69;95450.47;5005149;28;20532;-72
2021/01/17 02:14:01;;;;;;;18.57;14.10;;;;;;;-3.73;86.77;95444.81;4997977;28;20507;-71
2021/01/17 02:16:28;;;;;;;13.60;11.17;;;;;;;-3.73;86.94;95437.06;4983423;28;20521;-72
2021/01/17 02:18:59;;;;;;;19.57;14.10;;;;;;;-3.74;87.17;95432.84;5008204;28;20467;-72
2021/01/17 02:21:28;;;;;;;17.90;12.80;;;;;;;-3.74;87.15;95430.28;5001733;28;20456;-72
2021/01/17 02:24:04;;;;;;;18.87;13.30;;;;;;;-3.73;87.92;95419.03;4999438;28;20508;-71
2021/01/17 02:26:32;;;;;;;17.13;13.30;;;;;;;-3.69;87.87;95411.91;4979657;28;20560;-72
2021/01/17 02:28:59;;;;;;;18.80;13.90;;;;;;;-3.67;87.57;95406.63;4988768;28;21256;-72
2021/01/17 02:31:26;;;;;;;17.17;14.87;;;;;;;-3.63;87.44;95408.91;4999809;28;21086;-71
2021/01/17 02:33:54;;;;;;;15.73;13.97;;;;;;;-3.68;86.87;95405.81;5007003;28;20471;-71
2021/01/17 02:36:42;;;;;;;19.50;13.73;;;;;;;-3.78;86.88;95400.44;5003917;28;20475;-72
2021/01/17 02:39:14;;;;;;;19.07;15.27;;;;;;;-3.79;86.37;95398.81;4987774;28;20480;-72
2021/01/17 02:41:57;;;;;;;22.57;16.90;;;;;;;-3.82;85.75;95403.34;5001630;28;20940;-72
2021/01/17 02:44:26;;;;;;;18.63;14.33;;;;;;;-3.80;86.12;95392.00;4997386;28;20521;-72
2021/01/17 02:46:53;;;;;;;19.87;13.43;;;;;;;-3.89;86.11;95402.09;4997070;28;20893;-72
2021/01/17 02:49:20;;;;;;;14.67;12.67;;;;;;;-3.88;85.63;95383.97;5008224;28;20471;-72
2021/01/17 02:51:48;;;;;;;18.50;14.27;;;;;;;-3.93;85.64;95391.19;4986144;28;21039;-72
2021/01/17 02:54:21;;;;;;;15.63;12.83;;;;;;;-3.96;85.72;95387.97;4979599;28;20471;-72
2021/01/17 02:56:54;;;;;;;17.10;13.27;;;;;;;-4.07;85.89;95386.13;5007204;28;20494;-72
2021/01/17 02:59:25;;;;;;;18.87;14.70;;;;;;;-4.11;86.73;95387.25;4989702;28;20549;-71
2021/01/17 03:01:55;;;;;;;16.30;14.03;;;;;;;-4.14;86.78;95387.44;5005659;28;20522;-72
2021/01/17 03:04:31;;;;;;;15.53;13.03;;;;;;;-4.20;87.06;95382.72;4995366;28;20479;-72
2021/01/17 03:06:59;;;;;;;21.07;13.93;;;;;;;-4.19;87.80;95380.03;4986183;28;20471;-72
2021/01/17 03:09:29;;;;;;;19.50;15.10;;;;;;;-4.19;87.70;95374.06;4985284;28;20816;-72
2021/01/17 03:12:01;;;;;;;19.13;15.07;;;;;;;-4.11;88.54;95376.97;4988816;28;20491;-73
2021/01/17 03:14:31;;;;;;;17.23;12.90;;;;;;;-4.09;87.92;95375.91;4999403;28;20480;-72
2021/01/17 03:16:58;;;;;;;16.30;12.63;;;;;;;-4.03;88.64;95374.66;5003589;28;20479;-72
2021/01/17 03:19:25;;;;;;;15.73;12.50;;;;;;;-3.93;88.20;95365.41;4981326;28;20600;-72
2021/01/17 03:21:52;;;;;;;18.27;13.57;;;;;;;-3.97;88.49;95357.97;4992861;28;20530;-72
2021/01/17 03:24:19;;;;;;;14.67;10.93;;;;;;;-3.94;87.72;95365.50;4985283;28;20460;-72
2021/01/17 03:26:45;;;;;;;17.07;10.77;;;;;;;-4.02;87.55;95358.31;5000006;28;20537;-73
2021/01/17 03:29:13;;;;;;;13.07;10.93;;;;;;;-4.07;87.93;95368.06;4994136;28;20503;-72
2021/01/17 03:31:40;;;;;;;15.63;11.63;;;;;;;-4.11;87.85;95366.66;4983951;28;20479;-73
2021/01/17 03:34:07;;;;;;;16.17;12.57;;;;;;;-4.13;88.14;95368.47;5000582;28;20475;-73
2021/01/17 03:36:34;;;;;;;15.90;12.17;;;;;;;-4.11;88.45;95374.38;4980983;28;20982;-73
2021/01/17 03:39:01;;;;;;;13.80;10.97;;;;;;;-4.10;88.21;95379.44;5000781;28;20896;-73
2021/01/17 03:41:28;;;;;;;14.33;12.03;;;;;;;-4.08;88.91;95377.56;5001223;28;20496;-72
2021/01/17 03:43:55;;;;;;;12.70;10.87;;;;;;;-4.00;88.94;95384.78;4998436;28;21367;-73
2021/01/17 03:46:24;;;;;;;11.27;9.33;;;;;;;-4.01;88.43;95383.13;5001444;28;20597;-73
2021/01/17 03:48:51;;;;;;;13.67;9.63;;;;;;;-3.98;88.72;95385.50;5006273;28;20499;-73
2021/01/17 03:51:18;;;;;;;13.93;10.57;;;;;;;-3.96;88.92;95383.63;4977720;28;20717;-73
2021/01/17 03:53:44;;;;;;;13.37;10.17;;;;;;;-3.92;88.69;95377.38;4998072;28;20534;-73
2021/01/17 03:56:11;;;;;;;13.43;12.03;;;;;;;-3.93;87.87;95383.47;5001742;28;20556;-73
2021/01/17 03:58:38;;;;;;;11.00;9.47;;;;;;;-3.94;88.71;95376.63;4997692;28;20491;-73
2021/01/17 04:01:05;;;;;;;11.33;9.10;;;;;;;-3.92;88.43;95374.78;5002981;28;20468;-73
2021/01/17 04:03:33;;;;;;;15.63;11.83;;;;;;;-3.90;88.94;95375.50;4973458;28;20467;-73
2021/01/17 04:06:00;;;;;;;11.60;10.50;;;;;;;-3.86;88.88;95371.78;4997746;28;20521;-74
2021/01/17 04:08:27;;;;;;;13.93;11.90;;;;;;;-3.79;88.25;95367.88;5005887;28;20483;-73
2021/01/17 04:10:53;;;;;;;18.07;9.60;;;;;;;-3.84;88.13;95379.41;5003828;28;20536;-72
2021/01/17 04:13:20;;;;;;;10.93;9.10;;;;;;;-3.87;88.14;95370.13;4999523;28;20464;-74
2021/01/17 04:15:47;;;;;;;11.30;9.83;;;;;;;-3.86;88.63;95366.63;4996160;28;20464;-74
2021/01/17 04:18:14;;;;;;;12.93;10.80;;;;;;;-3.83;88.74;95368.19;4996575;28;21088;-74
2021/01/17 04:20:42;;;;;;;12.07;8.97;;;;;;;-3.84;88.86;95369.94;5001133;28;20507;-73
2021/01/17 04:23:10;;;;;;;14.17;10.10;;;;;;;-3.78;89.09;95372.09;5004195;28;20489;-74
2021/01/17 04:25:37;;;;;;;11.30;10.07;;;;;;;-3.79;88.97;95370.44;5002376;28;20482;-74
2021/01/17 04:28:04;;;;;;;14.87;10.57;;;;;;;-3.76;88.37;95372.81;4983972;28;20475;-74
2021/01/17 04:30:32;;;;;;;13.90;10.13;;;;;;;-3.78;88.79;95369.50;5000108;28;20476;-73
2021/01/17 04:32:58;;;;;;;15.47;11.93;;;;;;;-3.73;88.91;95366.63;4998378;28;21222;-74
2021/01/17 04:35:25;;;;;;;13.10;11.30;;;;;;;-3.74;88.83;95365.81;4973678;28;20500;-73
2021/01/17 04:37:57;;;;;;;17.63;11.23;;;;;;;-3.73;88.65;95372.63;5000815;28;21064;-73
2021/01/17 04:40:24;;;;;;;13.73;11.50;;;;;;;-3.74;88.12;95373.56;4976094;28;20878;-73
2021/01/17 04:43:06;;;;;;;14.30;10.53;;;;;;;-3.75;88.35;95374.47;5000997;28;21226;-74
2021/01/17 04:45:34;;;;;;;16.07;11.83;;;;;;;-3.69;88.31;95362.09;4993692;28;20798;-73
2021/01/17 04:48:03;;;;;;;15.27;10.93;;;;;;;-3.71;88.13;95369.94;5001655;28;20455;-73
2021/01/17 04:50:32;;;;;;;11.30;10.23;;;;;;;-3.70;88.15;95365.59;5001391;28;20557;-74
2021/01/17 04:53:01;;;;;;;12.90;11.47;;;;;;;-3.70;88.29;95357.88;4986451;28;20499;-74
2021/01/17 04:55:28;;;;;;;11.97;10.27;;;;;;;-3.69;88.35;95372.41;5001698;28;20530;-74
2021/01/17 04:58:04;;;;;;;12.93;10.73;;;;;;;-3.66;88.39;95367.03;4998289;28;20888;-74
2021/01/17 05:00:33;;;;;;;18.73;11.57;;;;;;;-3.68;88.49;95367.13;4996012;28;20886;-73
2021/01/17 05:03:18;;;;;;;13.20;9.27;;;;;;;-3.68;88.20;95374.03;4998950;28;20815;-73
2021/01/17 05:06:00;;;;;;;11.03;9.47;;;;;;;-3.70;88.51;95370.75;5003602;28;20483;-74
2021/01/17 05:08:33;;;;;;;11.43;10.23;;;;;;;-3.68;89.30;95380.03;5004718;28;20533;-73
2021/01/17 05:11:02;;;;;;;11.43;10.27;;;;;;;-3.69;89.14;95377.56;5001820;28;20463;-74
2021/01/17 05:13:37;;;;;;;11.70;10.53;;;;;;;-3.68;89.43;95372.28;4993158;28;20975;-73
2021/01/17 05:16:09;;;;;;;13.40;10.93;;;;;;;-3.69;89.28;95380.13;4999632;28;20968;-73
2021/01/17 05:18:36;;;;;;;12.57;9.53;;;;;;;-3.66;89.81;95374.75;5004583;28;20483;-74
2021/01/17 05:21:04;;;;;;;12.20;11.00;;;;;;;-3.61;89.16;95372.72;4982120;28;20460;-74
2021/01/17 05:23:35;;;;;;;11.23;9.47;;;;;;;-3.55;89.81;95372.28;4987872;28;20916;-73
2021/01/17 05:26:03;;;;;;;13.50;10.70;;;;;;;-3.53;89.18;95376.41;5001925;28;20459;-73
2021/01/17 05:28:31;;;;;;;15.83;13.10;;;;;;;-3.52;88.96;95379.81;5009307;28;20503;-74
2021/01/17 05:30:58;;;;;;;14.17;11.37;;;;;;;-3.52;89.46;95384.97;4990863;28;20525;-73
2021/01/17 05:33:28;;;;;;;11.30;9.63;;;;;;;-3.43;88.85;95376.59;4987977;28;20464;-74
2021/01/17 05:35:55;;;;;;;13.60;10.57;;;;;;;-3.36;89.14;95384.75;5002940;28;20491;-74
2021/01/17 05:38:22;;;;;;;13.27;10.83;;;;;;;-3.36;89.39;95384.75;4990691;28;20455;-74
2021/01/17 05:40:50;;;;;;;14.90;12.27;;;;;;;-3.34;89.46;95383.69;5006825;28;20551;-74
2021/01/17 05:43:17;;;;;;;14.30;11.10;;;;;;;-3.37;89.56;95383.09;4994232;28;20491;-74
2021/01/17 05:45:44;;;;;;;17.17;13.63;;;;;;;-3.41;89.54;95387.63;4992659;28;21021;-74
2021/01/17 05:48:12;;;;;;;12.40;10.50;;;;;;;-3.39;89.69;95385.75;5007393;28;20549;-74
2021/01/17 05:50:43;;;;;;;15.30;11.77;;;;;;;-3.27;88.96;95386.69;5004463;28;20875;-74
2021/01/17 05:53:10;;;;;;;13.87;12.17;;;;;;;-3.29;89.52;95384.22;4996097;28;20544;-75
2021/01/17 05:55:38;;;;;;;14.20;11.63;;;;;;;-3.34;88.96;95383.69;5008102;28;20984;-74
2021/01/17 05:58:27;;;;;;;12.33;10.77;;;;;;;-3.36;89.00;95395.06;5001204;28;21187;-74
2021/01/17 06:00:55;;;;;;;13.90;12.50;;;;;;;-3.38;88.97;95392.59;4992056;28;20472;-74
2021/01/17 06:03:25;;;;;;;15.43;11.50;;;;;;;-3.37;89.24;95391.66;4991638;28;20876;-74
2021/01/17 06:05:57;;;;;;;12.80;10.20;;;;;;;-3.44;88.71;95398.16;4990707;28;20468;-74
2021/01/17 06:08:26;;;;;;;13.83;10.33;;;;;;;-3.39;89.05;95403.81;4988827;28;20464;-74
2021/01/17 06:10:55;;;;;;;14.67;11.93;;;;;;;-3.35;89.27;95401.88;4970684;28;20488;-73
2021/01/17 06:13:26;;;;;;;16.10;13.63;;;;;;;-3.37;88.93;95406.31;4997650;28;21266;-74
2021/01/17 06:15:53;;;;;;;14.40;12.03;;;;;;;-3.34;88.75;95400.94;4998631;28;20475;-74
2021/01/17 06:18:22;;;;;;;13.57;10.57;;;;;;;-3.29;89.09;95399.69;5003821;28;20502;-74
2021/01/17 06:20:57;;;;;;;13.10;11.00;;;;;;;-3.28;88.45;95403.09;4996615;28;21055;-74
2021/01/17 06:23:25;;;;;;;16.93;13.03;;;;;;;-3.27;88.49;95407.34;5008506;28;20490;-74
2021/01/17 06:26:03;;;;;;;17.13;12.63;;;;;;;-3.31;88.23;95408.47;4987372;28;20472;-75
2021/01/17 06:28:42;;;;;;;16.87;13.57;;;;;;;-3.35;88.56;95415.59;5002447;28;20836;-74
2021/01/17 06:31:10;;;;;;;19.23;13.30;;;;;;;-3.39;89.00;95410.72;4975816;28;20502;-75
2021/01/17 06:33:38;;;;;;;13.53;11.93;;;;;;;-3.39;88.54;95406.41;4979507;28;21089;-74
2021/01/17 06:36:13;;;;;;;19.23;13.97;;;;;;;-3.40;88.97;95404.75;4987542;28;20529;-74
2021/01/17 06:38:40;;;;;;;16.67;13.30;;;;;;;-3.40;89.30;95403.94;4996691;28;20523;-75
2021/01/17 06:41:08;;;;;;;21.80;14.87;;;;;;;-3.38;89.04;95415.81;4998402;28;20478;-70
2021/01/17 06:43:41;;;;;;;21.63;15.60;;;;;;;-3.37;88.88;95414.06;4986172;28;20538;-70
2021/01/17 06:46:10;;;;;;;22.10;17.13;;;;;;;-3.34;89.43;95419.00;5001528;28;20466;-70
2021/01/17 06:48:38;;;;;;;16.77;15.00;;;;;;;-3.34;89.18;95419.81;4987190;28;20726;-69
2021/01/17 06:51:19;;;;;;;22.17;16.50;;;;;;;-3.34;88.62;95419.81;5004684;28;20471;-69
2021/01/17 06:53:53;;;;;;;18.47;13.17;;;;;;;-3.35;88.96;95423.34;5000093;28;20525;-70
2021/01/17 06:56:20;;;;;;;21.13;16.30;;;;;;;-3.35;88.82;95417.34;4988060;28;21048;-70
2021/01/17 06:58:51;;;;;;;22.87;15.47;;;;;;;-3.34;89.20;95422.41;4991883;28;20566;-69
2021/01/17 07:01:26;;;;;;;17.13;14.90;;;;;;;-3.33;89.05;95420.66;5000980;28;20484;-69
2021/01/17 07:04:10;;;;;;;17.73;13.20;;;;;;;-3.33;89.06;95416.31;4998238;28;20451;-70
2021/01/17 07:06:58;;;;;;;17.30;13.10;;;;;;;-3.31;88.53;95427.34;4991771;28;20526;-69
2021/01/17 07:09:32;;;;;;;16.43;13.20;;;;;;;-3.33;88.85;95429.22;5003240;28;20788;-69
2021/01/17 07:12:00;;;;;;;17.40;13.63;;;;;;;-3.31;88.91;95427.34;5001418;28;20964;-69
2021/01/17 07:14:30;;;;;;;18.17;13.73;;;;;;;-3.29;88.60;95430.66;4993949;28;20921;-69
2021/01/17 07:16:58;;;;;;;16.23;13.23;;;;;;;-3.25;89.12;95433.84;4996244;28;20577;-69
2021/01/17 07:19:32;;;;;;;15.67;11.77;;;;;;;-3.20;88.19;95424.88;4994272;28;21200;-69
2021/01/17 07:22:04;;;;;;;18.20;12.47;;;;;;;-3.12;88.75;95431.22;4999851;28;20456;-70
2021/01/17 07:24:33;;;;;;;13.80;12.33;;;;;;;-3.10;88.12;95437.13;5006930;28;20498;-69
2021/01/17 07:27:38;;;;;;;16.50;14.37;;;;;;;-3.09;88.18;95436.19;4975914;28;20468;-69
2021/01/17 07:30:18;;;;;;;17.10;13.50;;;;;;;-3.01;87.80;95439.06;4988042;28;20483;-69
2021/01/17 07:32:54;;;;;;;15.17;13.20;;;;;;;-2.99;87.88;95444.94;4993175;28;20506;-69
2021/01/17 07:35:25;;;;;;;16.93;14.17;;;;;;;-2.94;87.61;95437.69;4999927;28;20497;-69
2021/01/17 07:37:54;;;;;;;20.03;13.47;;;;;;;-2.89;87.36;95444.19;4997223;28;20819;-69
2021/01/17 07:40:49;;;;;;;16.37;12.47;;;;;;;-2.83;87.28;95450.69;4977008;28;20914;-69
2021/01/17 07:43:12;;;;;;;19.57;13.60;;;;;;;-2.78;87.13;95451.19;4998352;28;20534;-69
2021/01/17 07:45:41;;;;;;;13.13;11.83;;;;;;;-2.73;87.27;95450.88;4998584;28;20475;-69
2021/01/17 07:48:09;;;;;;;13.67;12.27;;;;;;;-2.66;87.03;95455.47;4988565;28;21046;-69
2021/01/17 07:50:38;;;;;;;14.07;11.23;;;;;;;-2.57;86.37;95452.25;4999723;28;20471;-69
2021/01/17 07:53:09;;;;;;;15.17;13.30;;;;;;;-2.46;86.38;95456.66;5004440;28;20567;-69
2021/01/17 07:55:37;;;;;;;13.97;11.97;;;;;;;-2.37;85.98;95448.25;5000473;28;20491;-70
2021/01/17 07:58:04;;;;;;;14.37;11.87;;;;;;;-2.31;85.41;95452.13;5004546;28;20472;-69
2021/01/17 08:00:31;;;;;;;15.57;13.23;;;;;;;-2.27;85.59;95447.59;4994828;28;20518;-69
2021/01/17 08:02:59;;;;;;;14.07;12.57;;;;;;;-2.21;85.46;95452.28;5002616;28;20475;-69
2021/01/17 08:05:48;;;;;;;15.67;11.97;;;;;;;-2.10;85.15;95454.94;4996261;28;21151;-70
2021/01/17 08:08:49;;;;;;;16.30;11.23;;;;;;;-1.92;84.85;95455.31;4995098;28;20460;-69
2021/01/17 08:11:41;;;;;;;14.97;12.23;;;;;;;-1.82;84.09;95454.56;4987317;28;20542;-69
2021/01/17 08:14:20;;;;;;;18.83;13.97;;;;;;;-1.71;82.89;95456.34;4992252;28;20843;-69
2021/01/17 08:17:08;;;;;;;13.63;12.13;;;;;;;-1.69;82.37;95459.63;4985789;28;20484;-69
2021/01/17 08:19:46;;;;;;;12.10;10.90;;;;;;;-1.68;82.41;95456.09;5005752;28;20460;-70
2021/01/17 08:22:44;;;;;;;16.57;13.37;;;;;;;-1.65;83.01;95463.63;5002920;28;20463;-69
2021/01/17 08:25:36;;;;;;;14.03;12.00;;;;;;;-1.66;83.12;95468.94;5005400;28;20471;-69
2021/01/17 08:28:31;;;;;;;15.67;13.57;;;;;;;-1.68;82.99;95463.88;4991809;28;20980;-70
2021/01/17 08:30:57;;;;;;;11.53;10.33;;;;;;;-1.61;83.18;95466.84;4990684;28;20512;-69
2021/01/17 08:33:27;;;;;;;15.00;12.07;;;;;;;-1.54;82.95;95473.22;5002636;28;21161;-69
2021/01/17 08:35:55;;;;;;;15.07;10.57;;;;;;;-1.46;82.98;95460.53;5004381;28;20878;-69
2021/01/17 08:38:23;;;;;;;14.03;11.47;;;;;;;-1.42;82.86;95468.88;5002737;28;20534;-69
2021/01/17 08:40:52;;;;;;;18.07;12.00;;;;;;;-1.46;82.34;95470.88;4988873;28;20480;-69
2021/01/17 08:43:29;;;;;;;11.17;10.07;;;;;;;-1.45;82.22;95462.97;5001829;28;20467;-69
2021/01/17 08:45:56;;;;;;;10.27;9.20;;;;;;;-1.45;82.22;95468.16;5001535;28;20530;-69
2021/01/17 08:48:26;;;;;;;12.27;11.07;;;;;;;-1.41;81.97;95467.91;4992795;28;20497;-69
2021/01/17 08:50:54;;;;;;;12.17;9.97;;;;;;;-1.38;82.43;95473.69;5002494;28;20464;-69
2021/01/17 08:53:30;;;;;;;10.87;9.57;;;;;;;-1.27;82.41;95478.88;4993374;28;20511;-69
2021/01/17 08:55:59;;;;;;;11.43;10.17;;;;;;;-1.12;81.47;95474.28;5003993;28;20476;-69
2021/01/17 08:58:43;;;;;;;12.00;9.70;;;;;;;-1.04;81.30;95479.72;5000057;28;20997;-69
2021/01/17 09:01:11;;;;;;;9.80;8.80;;;;;;;-0.99;81.05;95479.38;4999265;28;20893;-69
2021/01/17 09:03:50;;;;;;;11.83;9.03;;;;;;;-0.97;81.15;95488.66;5004989;28;21154;-69
2021/01/17 09:06:25;;;;;;;8.20;7.43;;;;;;;-0.89;81.24;95490.66;5002366;28;20517;-69
2021/01/17 09:09:06;;;;;;;9.50;7.93;;;;;;;-0.94;81.13;95493.59;5000937;28;20817;-69
2021/01/17 09:11:39;;;;;;;8.57;7.67;;;;;;;-0.90;81.71;95494.22;4984773;28;21072;-70
2021/01/17 09:14:35;;;;;;;8.00;7.13;;;;;;;-0.83;81.42;95499.72;4994712;28;20456;-69
2021/01/17 09:17:07;;;;;;;10.07;8.30;;;;;;;-0.77;82.06;95502.66;4981567;28;20283;-69
2021/01/17 09:19:36;;;;;;;7.73;7.07;;;;;;;-0.73;81.98;95504.09;4993727;28;20471;-69
2021/01/17 09:22:05;;;;;;;9.60;8.80;;;;;;;-0.67;81.67;95500.19;5003958;28;20467;-69
2021/01/17 09:24:33;;;;;;;8.03;7.00;;;;;;;-0.53;81.14;95499.94;5000042;28;21100;-69
2021/01/17 09:27:06;;;;;;;8.50;7.67;;;;;;;-0.56;81.63;95502.75;4997450;28;20566;-69
2021/01/17 09:29:34;;;;;;;8.40;7.57;;;;;;;-0.51;81.38;95511.00;4995220;28;20229;-69
2021/01/17 09:32:06;;;;;;;8.33;7.60;;;;;;;-0.39;81.46;95510.03;4995334;28;20903;-69
2021/01/17 09:34:35;;;;;;;7.33;6.63;;;;;;;-0.35;81.89;95515.81;4983372;28;21056;-69
2021/01/17 09:37:07;;;;;;;8.13;6.80;;;;;;;-0.25;81.30;95516.75;4976897;28;20461;-69
2021/01/17 09:39:41;;;;;;;9.40;8.60;;;;;;;-0.22;81.14;95520.84;4977500;28;20249;-69
2021/01/17 09:42:10;;;;;;;8.67;7.97;;;;;;;-0.16;81.75;95525.56;4994327;28;20245;-69
2021/01/17 09:44:37;;;;;;;9.07;8.03;;;;;;;-0.18;81.62;95530.03;4986547;28;20305;-69
2021/01/17 09:47:15;;;;;;;8.23;7.43;;;;;;;-0.02;81.33;95530.47;4990949;28;20795;-69
2021/01/17 09:49:42;;;;;;;7.17;6.50;;;;;;;0.09;80.74;95527.84;4983562;28;20461;-69
2021/01/17 09:52:12;;;;;;;7.80;7.13;;;;;;;0.25;80.02;95535.22;4983439;28;20232;-68
2021/01/17 09:54:40;;;;;;;8.60;7.30;;;;;;;0.22;79.59;95535.47;4994703;28;20496;-69
2021/01/17 09:57:14;;;;;;;8.13;7.53;;;;;;;-0.11;80.47;95534.59;4996383;28;20324;-69
2021/01/17 09:59:41;;;;;;;7.33;6.63;;;;;;;-0.03;79.89;95541.78;5002225;28;20227;-69
2021/01/17 10:02:10;;;;;;;7.30;6.60;;;;;;;-0.04;80.10;95529.75;4975730;28;20235;-69
2021/01/17 10:04:39;;;;;;;8.27;7.17;;;;;;;-0.07;80.88;95532.63;4986330;28;20310;-69
2021/01/17 10:07:06;;;;;;;8.07;7.20;;;;;;;-0.01;79.66;95534.69;5001832;28;20230;-69
2021/01/17 10:09:33;;;;;;;8.90;7.60;;;;;;;0.15;79.59;95524.75;4983629;28;20237;-69
2021/01/17 10:12:02;;;;;;;9.13;6.97;;;;;;;0.13;79.84;95531.84;5000193;28;20267;-69
2021/01/17 10:14:32;;;;;;;7.87;7.20;;;;;;;0.20;79.01;95538.19;5002020;28;20259;-69
2021/01/17 10:17:00;;;;;;;6.50;6.00;;;;;;;-0.16;79.48;95539.34;4993158;28;20249;-69
2021/01/17 10:19:29;;;;;;;7.67;7.00;;;;;;;-0.42;81.10;95544.00;5000158;28;20979;-69
2021/01/17 10:21:57;;;;;;;6.77;5.80;;;;;;;-0.20;80.83;95542.28;4975236;28;20536;-69
2021/01/17 10:24:26;;;;;;;7.83;7.13;;;;;;;-0.13;80.00;95536.50;5003719;28;21037;-70
2021/01/17 10:26:56;;;;;;;7.33;6.63;;;;;;;-0.06;80.61;95544.63;4982774;28;20472;-69
2021/01/17 10:29:26;;;;;;;8.20;7.47;;;;;;;-0.34;80.56;95538.22;5007534;28;20249;-69
2021/01/17 10:31:58;;;;;;;8.57;7.77;;;;;;;-0.07;80.24;95545.59;5006381;28;20694;-69
2021/01/17 10:34:31;;;;;;;10.83;9.73;;;;;;;0.00;79.70;95551.94;4993098;28;20219;-69
2021/01/17 10:37:00;;;;;;;7.57;6.27;;;;;;;0.03;79.24;95541.31;5006942;28;20734;-69
2021/01/17 10:39:28;;;;;;;7.67;6.87;;;;;;;0.05;79.35;95549.78;4997943;28;20230;-69
2021/01/17 10:42:07;;;;;;;10.67;7.33;;;;;;;0.12;79.69;95550.94;4995430;28;20265;-69
2021/01/17 10:44:45;;;;;;;7.77;7.07;;;;;;;0.11;79.93;95551.91;4995111;28;20283;-70
2021/01/17 10:47:23;;;;;;;5.50;5.10;;;;;;;0.32;79.40;95556.31;4990057;28;20294;-69
2021/01/17 10:49:57;;;;;;;6.97;6.20;;;;;;;0.43;78.60;95553.66;4986697;28;20333;-69
2021/01/17 10:52:27;;;;;;;6.53;5.93;;;;;;;0.45;78.33;95556.94;4996936;28;20715;-70
2021/01/17 10:54:55;;;;;;;6.53;5.70;;;;;;;0.47;79.44;95549.88;4980798;28;20285;-70
2021/01/17 10:57:23;;;;;;;8.17;7.37;;;;;;;0.45;78.01;95552.56;5001283;28;20234;-70
2021/01/17 10:59:54;;;;;;;6.90;6.50;;;;;;;0.43;79.00;95549.28;5002228;28;20234;-69
2021/01/17 11:02:22;;;;;;;6.97;6.37;;;;;;;0.45;78.69;95551.75;5001899;28;20253;-70
2021/01/17 11:04:49;;;;;;;8.73;8.03;;;;;;;0.63;78.17;95555.44;5001594;28;20227;-69
2021/01/17 11:07:20;;;;;;;7.33;5.37;;;;;;;0.78;77.84;95546.41;4994213;28;20678;-69
2021/01/17 11:09:47;;;;;;;8.07;6.87;;;;;;;0.96;77.75;95551.03;4998473;28;20318;-69
2021/01/17 11:12:14;;;;;;;7.53;6.47;;;;;;;1.15;78.03;95545.94;4992661;28;20232;-70
2021/01/17 11:14:41;;;;;;;7.40;6.80;;;;;;;1.23;77.02;95547.91;4996787;28;20227;-70
2021/01/17 11:17:09;;;;;;;8.87;7.50;;;;;;;1.32;76.16;95552.31;4985978;28;20228;-70
2021/01/17 11:19:38;;;;;;;7.60;6.93;;;;;;;1.47;76.50;95555.41;5001428;28;20574;-69
2021/01/17 11:22:06;;;;;;;6.43;5.93;;;;;;;1.49;75.75;95554.31;5003311;28;20220;-69
2021/01/17 11:24:37;;;;;;;7.53;6.83;;;;;;;1.63;75.00;95561.75;4975830;28;20286;-70
2021/01/17 11:27:10;;;;;;;5.97;5.47;;;;;;;1.71;75.43;95554.09;4995613;28;20240;-69
2021/01/17 11:29:37;;;;;;;5.87;5.27;;;;;;;1.67;74.89;95552.72;4984938;28;20735;-68
2021/01/17 11:32:04;;;;;;;6.17;5.67;;;;;;;1.77;74.97;95549.34;4981342;28;20746;-69
2021/01/17 11:34:38;;;;;;;6.73;6.20;;;;;;;1.88;74.59;95546.63;5001624;28;20228;-70
2021/01/17 11:37:07;;;;;;;6.50;5.90;;;;;;;2.03;75.58;95541.88;4997909;28;20225;-70
2021/01/17 11:39:34;;;;;;;7.33;6.63;;;;;;;2.15;74.66;95551.19;4993686;28;20278;-70